Time;durP1;ratioP1;P1;durP2;ratioP2;P2;SDS_P1;SDS_P2;PMS_P1;PMS_P2;Temp;Humidity;BMP_temperature;BMP_pressure;BME280_temperature;BME280_humidity;BME280_pressure;Samples;Min_cycle;Max_cycle;Signal;HPM_P1;HPM_P2
2022/04/06 00:01:36;;;;;;;21.27;7.07;;;;;;;8.81;53.44;94876.56;6232435;22;20015;-84
2022/04/06 00:04:02;;;;;;;26.35;9.02;;;;;;;8.67;53.73;94874.75;6230032;23;20095;-83
2022/04/06 00:06:27;;;;;;;28.08;7.05;;;;;;;7.85;53.74;94735.94;6230506;23;20410;-83
2022/04/06 00:08:53;;;;;;;15.77;7.50;;;;;;;8.23;54.25;94854.22;6230175;23;20019;-83
2022/04/06 00:11:18;;;;;;;19.45;7.65;;;;;;;7.79;53.37;94744.91;6230015;23;20550;-83
2022/04/06 00:13:44;;;;;;;23.45;7.78;;;;;;;8.64;53.49;94883.22;6229777;22;20012;-83
2022/04/06 00:16:09;;;;;;;19.73;7.25;;;;;;;7.81;53.70;94779.75;6231713;22;20011;-84
2022/04/06 00:18:35;;;;;;;22.58;7.60;;;;;;;7.88;53.61;94751.22;6230259;23;20103;-84
2022/04/06 00:21:00;;;;;;;23.35;7.32;;;;;;;8.32;53.75;94825.41;6232801;22;20015;-82
2022/04/06 00:23:26;;;;;;;18.50;6.20;;;;;;;7.92;53.81;94781.34;6232587;23;20011;-84
2022/04/06 00:25:51;;;;;;;18.40;7.15;;;;;;;8.56;53.70;94871.34;6232711;23;20363;-84
2022/04/06 00:28:16;;;;;;;20.23;7.18;;;;;;;7.48;54.15;94721.19;6236693;22;20007;-82
2022/04/06 00:30:42;;;;;;;21.10;7.30;;;;;;;7.86;53.83;94772.63;6235081;23;20012;-83
2022/04/06 00:33:07;;;;;;;20.23;7.07;;;;;;;8.06;53.53;94787.66;6235543;23;20040;-82
2022/04/06 00:35:34;;;;;;;19.50;7.38;;;;;;;7.64;53.77;94740.44;6233774;23;20008;-84
2022/04/06 00:38:03;;;;;;;18.90;6.60;;;;;;;7.86;54.07;94779.78;6233576;23;20418;-82
2022/04/06 00:40:30;;;;;;;15.80;7.13;;;;;;;7.09;54.10;94655.00;6233390;23;20026;-84
2022/04/06 00:42:55;;;;;;;23.52;10.25;;;;;;;5.18;53.74;94372.78;6233323;23;20008;-84
2022/04/06 00:45:22;;;;;;;27.40;9.85;;;;;;;8.42;53.36;94886.16;6233499;23;20111;-83
2022/04/06 00:47:48;;;;;;;26.70;11.43;;;;;;;7.95;53.40;94808.00;6233721;23;20012;-83
2022/04/06 00:50:14;;;;;;;27.10;11.30;;;;;;;7.93;52.98;94817.25;6233381;23;20007;-82
2022/04/06 00:52:40;;;;;;;25.38;11.20;;;;;;;8.33;53.17;94891.19;6233292;23;20016;-83
2022/04/06 00:55:07;;;;;;;27.23;11.32;;;;;;;7.55;54.60;94800.88;6233557;23;20019;-83
2022/04/06 00:57:33;;;;;;;27.42;12.32;;;;;;;7.56;53.85;94794.53;6235321;22;20475;-82
2022/04/06 00:59:59;;;;;;;24.17;12.05;;;;;;;8.18;54.10;94888.53;6234149;23;20034;-83
2022/04/06 01:02:25;;;;;;;28.85;12.32;;;;;;;7.31;54.82;94779.50;6233544;23;20014;-83
2022/04/06 01:04:51;;;;;;;32.38;12.02;;;;;;;7.71;54.05;94843.91;6234173;22;20046;-83
2022/04/06 01:07:18;;;;;;;30.92;13.15;;;;;;;7.20;54.16;94759.44;6231559;23;20015;-83
2022/04/06 01:09:43;;;;;;;32.05;13.75;;;;;;;7.87;53.37;94874.53;6233954;23;20008;-83
2022/04/06 01:12:09;;;;;;;40.05;14.00;;;;;;;7.42;53.91;94800.59;6236537;23;20110;-83
2022/04/06 01:14:37;;;;;;;36.30;13.45;;;;;;;7.21;53.81;94776.84;6235222;23;20328;-83
2022/04/06 01:17:07;;;;;;;37.92;12.70;;;;;;;8.03;53.93;94889.31;6236934;22;20065;-83
2022/04/06 01:19:34;;;;;;;32.03;12.73;;;;;;;7.29;53.62;94760.50;6235184;23;20483;-83
2022/04/06 01:22:00;;;;;;;30.80;12.38;;;;;;;7.50;53.58;94811.44;6232706;22;20008;-83
2022/04/06 01:24:26;;;;;;;34.20;13.18;;;;;;;7.86;54.01;94894.06;6232653;23;20088;-84
2022/04/06 01:26:52;;;;;;;34.83;13.75;;;;;;;6.91;55.15;94806.56;6234798;22;20038;-82
2022/04/06 01:29:17;;;;;;;36.83;13.88;;;;;;;7.07;54.52;94810.03;6234846;22;20004;-82
2022/04/06 01:31:43;;;;;;;30.38;14.10;;;;;;;7.21;55.22;94834.88;6234508;23;20023;-83
2022/04/06 01:34:08;;;;;;;24.88;13.00;;;;;;;6.81;55.30;94777.53;6238114;23;20543;-83
2022/04/06 01:36:34;;;;;;;33.45;14.65;;;;;;;7.37;55.96;94880.53;6236946;22;20522;-83
2022/04/06 01:38:59;;;;;;;34.42;13.85;;;;;;;6.74;55.49;94805.97;6236573;23;20015;-83
2022/04/06 01:41:34;;;;;;;35.72;15.23;;;;;;;6.81;56.07;94837.34;6237456;22;20071;-83
2022/04/06 01:44:01;;;;;;;37.15;15.13;;;;;;;6.58;55.12;94807.75;6235995;22;20351;-82
2022/04/06 01:46:26;;;;;;;33.22;14.95;;;;;;;6.46;55.64;94799.28;6234236;23;20051;-82
2022/04/06 01:54:24;;;;;;;34.47;14.75;;;;;;;6.63;53.60;94793.84;6235069;23;20018;-83
2022/04/06 01:56:50;;;;;;;37.05;15.40;;;;;;;7.35;54.10;94882.63;6237346;22;20623;-83
2022/04/06 01:59:16;;;;;;;34.65;15.70;;;;;;;6.80;53.87;94796.25;6234283;23;20012;-83
2022/04/06 02:01:43;;;;;;;38.00;15.68;;;;;;;6.70;53.83;94780.41;6235413;22;20020;-82
2022/04/06 02:04:14;;;;;;;40.90;16.42;;;;;;;6.73;53.91;94807.03;6234019;23;20383;-83
2022/04/06 02:06:40;;;;;;;35.22;15.88;;;;;;;6.82;54.34;94834.47;6234982;23;20069;-84
2022/04/06 02:09:05;;;;;;;36.35;15.07;;;;;;;6.85;53.77;94818.16;6236029;23;20491;-82
2022/04/06 02:11:31;;;;;;;37.13;16.05;;;;;;;7.00;53.48;94858.78;6233295;23;20008;-83
2022/04/06 02:13:57;;;;;;;34.45;15.32;;;;;;;6.44;53.00;94790.03;6236780;22;20306;-82
2022/04/06 02:16:23;;;;;;;31.70;14.75;;;;;;;7.00;54.50;94872.78;6235899;22;20543;-82
2022/04/06 02:18:50;;;;;;;34.72;15.27;;;;;;;6.87;53.95;94850.31;6236307;22;20070;-82
2022/04/06 02:21:15;;;;;;;32.67;15.13;;;;;;;6.24;54.47;94751.25;6237713;22;20008;-82
2022/04/06 02:23:41;;;;;;;37.40;15.70;;;;;;;6.44;54.52;94816.38;6235447;23;20111;-83
2022/04/06 02:26:06;;;;;;;33.17;16.38;;;;;;;6.48;54.62;94799.81;6235263;23;20011;-83
2022/04/06 02:28:32;;;;;;;30.52;15.18;;;;;;;6.57;54.84;94832.50;6236190;22;20015;-84
2022/04/06 02:30:57;;;;;;;42.88;15.80;;;;;;;6.48;54.47;94820.91;6232283;23;20018;-83
2022/04/06 02:33:23;;;;;;;44.53;15.40;;;;;;;6.43;53.30;94804.25;6233825;22;20455;-82
2022/04/06 02:35:48;;;;;;;42.55;16.75;;;;;;;6.36;55.17;94820.28;6234250;22;20008;-83
2022/04/06 02:38:14;;;;;;;29.00;14.63;;;;;;;6.20;53.94;94785.19;6233024;23;20007;-83
2022/04/06 02:40:39;;;;;;;37.00;14.57;;;;;;;6.87;55.22;94912.75;6231836;23;20067;-84
2022/04/06 02:43:05;;;;;;;33.63;14.93;;;;;;;6.98;54.45;94909.94;6232064;23;20055;-83
2022/04/06 02:45:30;;;;;;;30.63;16.52;;;;;;;6.55;55.44;94889.97;6229992;23;20078;-84
2022/04/06 02:47:56;;;;;;;34.15;15.48;;;;;;;6.83;55.39;94915.13;6233476;23;20204;-82
2022/04/06 02:50:21;;;;;;;33.95;15.75;;;;;;;5.59;56.06;94754.22;6235076;22;20517;-83
2022/04/06 02:52:47;;;;;;;29.80;15.25;;;;;;;6.65;55.27;94922.66;6231872;23;20016;-83
2022/04/06 02:55:13;;;;;;;38.17;15.77;;;;;;;6.57;55.26;94892.31;6232293;23;20070;-83
2022/04/06 02:57:40;;;;;;;47.05;16.48;;;;;;;6.45;54.92;94878.56;6233700;22;20452;-83
2022/04/06 03:00:07;;;;;;;28.63;14.60;;;;;;;6.08;55.96;94854.88;6230963;23;20012;-83
2022/04/06 03:02:32;;;;;;;32.15;15.73;;;;;;;6.09;55.53;94835.41;6230024;23;20387;-82
2022/04/06 03:04:57;;;;;;;44.70;16.27;;;;;;;5.80;55.33;94796.22;6231167;23;20407;-82
2022/04/06 03:07:23;;;;;;;31.75;15.93;;;;;;;6.82;55.19;94937.28;6230889;23;20012;-83
2022/04/06 03:09:48;;;;;;;31.25;15.43;;;;;;;6.30;55.83;94874.00;6229755;23;20471;-83
2022/04/06 03:12:14;;;;;;;46.22;15.77;;;;;;;6.77;55.77;94926.72;6232644;22;20400;-83
2022/04/06 03:14:40;;;;;;;32.33;14.75;;;;;;;6.25;55.55;94871.34;6231903;22;20456;-83
2022/04/06 03:17:05;;;;;;;30.17;15.73;;;;;;;6.73;55.60;94930.09;6230293;23;20015;-82
2022/04/06 03:19:31;;;;;;;36.85;14.55;;;;;;;6.62;55.55;94900.28;6229790;23;20012;-82
2022/04/06 03:21:56;;;;;;;37.08;14.88;;;;;;;6.37;55.89;94894.84;6230173;23;20101;-82
2022/04/06 03:24:22;;;;;;;34.42;15.57;;;;;;;6.40;55.99;94889.88;6230303;23;20035;-83
2022/04/06 03:26:47;;;;;;;43.58;16.20;;;;;;;6.36;55.99;94891.41;6231588;23;20009;-82
2022/04/06 03:29:13;;;;;;;39.30;18.38;;;;;;;6.11;55.60;94830.66;6229580;23;20103;-84
2022/04/06 03:31:39;;;;;;;41.97;16.15;;;;;;;6.35;55.73;94894.28;6229948;23;20008;-82
2022/04/06 03:34:04;;;;;;;50.50;16.88;;;;;;;6.67;55.45;94931.91;6232764;22;20039;-83
2022/04/06 03:36:29;;;;;;;52.75;18.20;;;;;;;6.70;55.71;94941.97;6230444;23;20004;-84
2022/04/06 03:38:55;;;;;;;52.78;18.73;;;;;;;5.89;55.54;94811.56;6232524;22;20008;-83
2022/04/06 03:41:21;;;;;;;59.70;17.35;;;;;;;6.05;56.07;94837.75;6229826;23;20016;-84
2022/04/06 03:43:46;;;;;;;42.30;17.20;;;;;;;6.27;55.72;94884.22;6228462;23;20015;-83
2022/04/06 03:46:13;;;;;;;51.58;18.85;;;;;;;5.44;55.49;94733.88;6230413;23;20378;-83
2022/04/06 03:48:38;;;;;;;58.50;19.98;;;;;;;6.80;55.61;94949.09;6229533;23;20064;-84
2022/04/06 03:51:04;;;;;;;52.03;20.00;;;;;;;5.99;54.36;94857.19;6230663;23;20050;-82
2022/04/06 03:53:29;;;;;;;51.47;20.80;;;;;;;4.83;53.85;94670.28;6232708;23;20420;-83
2022/04/06 03:55:55;;;;;;;55.88;22.23;;;;;;;5.90;54.86;94887.66;6229511;23;20213;-83
2022/04/06 03:58:21;;;;;;;66.45;23.10;;;;;;;6.38;54.74;94963.06;6230211;23;20039;-82
2022/04/06 04:00:46;;;;;;;61.88;23.88;;;;;;;5.99;54.51;94917.72;6231451;23;20012;-82
2022/04/06 04:03:12;;;;;;;59.47;23.30;;;;;;;5.97;54.31;94888.22;6235321;23;20008;-83
2022/04/06 04:05:37;;;;;;;56.13;23.25;;;;;;;6.09;54.57;94904.66;6243656;22;20008;-83
2022/04/06 04:08:03;;;;;;;59.53;22.10;;;;;;;5.83;54.76;94852.81;6241243;23;20611;-83
2022/04/06 04:10:29;;;;;;;57.67;22.83;;;;;;;5.97;54.01;94879.53;6239525;22;20008;-83
2022/04/06 04:12:55;;;;;;;57.88;23.88;;;;;;;5.58;54.40;94826.28;6233226;23;20075;-83
2022/04/06 04:15:20;;;;;;;61.75;22.13;;;;;;;6.09;54.29;94899.41;6234378;23;20012;-83
2022/04/06 04:17:46;;;;;;;54.22;23.80;;;;;;;5.70;54.23;94837.47;6231681;23;20012;-82
2022/04/06 04:20:11;;;;;;;56.42;22.27;;;;;;;5.93;53.80;94846.88;6231339;23;20027;-82
2022/04/06 04:22:37;;;;;;;51.75;21.92;;;;;;;6.24;54.61;94932.16;6233145;23;20461;-82
2022/04/06 04:25:03;;;;;;;48.90;22.10;;;;;;;6.62;53.61;94987.22;6232158;22;20611;-83
2022/04/06 04:27:29;;;;;;;54.50;21.85;;;;;;;6.71;53.61;94983.06;6231148;23;20431;-83
2022/04/06 04:29:55;;;;;;;51.63;21.05;;;;;;;6.15;53.69;94910.75;6230676;23;20023;-82
2022/04/06 04:32:22;;;;;;;54.85;21.58;;;;;;;5.62;53.49;94825.56;6233069;23;20024;-82
2022/04/06 04:34:48;;;;;;;56.47;19.92;;;;;;;5.35;53.06;94788.75;6231665;23;20300;-83
2022/04/06 04:37:13;;;;;;;57.63;19.85;;;;;;;6.28;52.86;94928.75;6233211;22;20011;-82
2022/04/06 04:39:39;;;;;;;42.53;17.17;;;;;;;6.60;53.05;94973.50;6230875;23;20020;-83
2022/04/06 04:42:05;;;;;;;50.33;19.77;;;;;;;6.59;53.27;94982.44;6233055;22;20010;-83
2022/04/06 04:44:30;;;;;;;50.58;21.13;;;;;;;6.55;52.78;94968.22;6232477;23;20031;-83
2022/04/06 04:46:56;;;;;;;88.53;27.42;;;;;;;6.31;53.55;94924.81;6231759;22;20008;-83
2022/04/06 04:49:22;;;;;;;142.90;39.83;;;;;;;6.68;54.38;94991.47;6231736;22;20095;-83
2022/04/06 04:51:47;;;;;;;169.82;46.92;;;;;;;6.77;54.40;94982.06;6228579;23;20443;-83
2022/04/06 04:54:12;;;;;;;127.03;37.92;;;;;;;6.89;55.27;95013.50;6233625;23;20016;-83
2022/04/06 04:56:41;;;;;;;89.07;29.13;;;;;;;6.53;54.16;94943.94;6230676;23;20019;-83
2022/04/06 04:59:07;;;;;;;80.78;26.00;;;;;;;6.48;54.12;94943.91;6229097;23;20542;-83
2022/04/06 05:01:32;;;;;;;83.53;25.90;;;;;;;6.74;54.38;95002.84;6230392;22;20004;-83
2022/04/06 05:03:58;;;;;;;67.90;24.02;;;;;;;6.99;54.13;95032.00;6228175;23;20008;-82
2022/04/06 05:06:23;;;;;;;76.88;23.38;;;;;;;5.55;53.84;94832.06;6229358;23;20043;-83
2022/04/06 05:08:49;;;;;;;62.13;18.73;;;;;;;6.01;53.08;94906.97;6231774;22;20245;-83
2022/04/06 05:11:15;;;;;;;45.28;18.58;;;;;;;6.63;53.33;95030.19;6230138;22;20007;-83
2022/04/06 05:13:40;;;;;;;44.72;17.65;;;;;;;6.89;52.67;95053.03;6229413;23;20012;-82
2022/04/06 05:16:06;;;;;;;47.15;17.75;;;;;;;6.78;52.65;95020.56;6229138;23;20008;-83
2022/04/06 05:18:31;;;;;;;54.13;18.15;;;;;;;6.58;52.36;94991.41;6228838;22;20023;-82
2022/04/06 05:20:57;;;;;;;53.85;18.02;;;;;;;7.02;51.65;95055.22;6229012;23;20015;-83
2022/04/06 05:23:23;;;;;;;55.50;18.08;;;;;;;6.00;51.95;94911.44;6230013;23;20008;-82
2022/04/06 05:25:49;;;;;;;55.33;18.85;;;;;;;6.74;52.35;95014.19;6233024;22;20015;-83
2022/04/06 05:28:18;;;;;;;50.38;18.17;;;;;;;6.08;52.03;94889.13;6230525;23;20092;-83
2022/04/06 05:30:46;;;;;;;55.95;19.08;;;;;;;7.24;51.79;95063.81;6231190;22;20008;-83
2022/04/06 05:33:12;;;;;;;47.78;19.20;;;;;;;6.45;51.91;94936.50;6230316;23;20465;-83
2022/04/06 05:35:38;;;;;;;52.53;19.52;;;;;;;7.05;51.61;95011.75;6230993;23;20004;-83
2022/04/06 05:38:03;;;;;;;51.90;19.13;;;;;;;6.50;52.09;94939.97;6230558;22;20056;-83
2022/04/06 05:40:29;;;;;;;47.42;18.95;;;;;;;7.02;52.00;95026.22;6230745;23;20012;-83
2022/04/06 05:42:54;;;;;;;49.45;19.33;;;;;;;6.66;52.07;94943.50;6231508;22;20317;-82
2022/04/06 05:45:20;;;;;;;47.97;18.73;;;;;;;7.47;52.21;95067.13;6229168;23;20026;-83
2022/04/06 05:47:46;;;;;;;56.42;20.23;;;;;;;7.29;52.20;95031.41;6230318;22;20413;-82
2022/04/06 05:50:12;;;;;;;59.35;20.58;;;;;;;6.92;52.99;94971.59;6231591;22;20012;-82
2022/04/06 05:52:38;;;;;;;45.08;19.70;;;;;;;6.79;52.74;94929.84;6232006;22;20016;-82
2022/04/06 05:55:04;;;;;;;61.45;21.27;;;;;;;6.61;52.63;94893.41;6230489;22;20525;-83
2022/04/06 05:57:30;;;;;;;59.55;20.30;;;;;;;7.73;53.15;95071.44;6230669;22;20085;-83
2022/04/06 05:59:55;;;;;;;52.25;18.77;;;;;;;7.15;53.18;94988.06;6231830;22;20055;-82
2022/04/06 06:02:23;;;;;;;59.58;21.02;;;;;;;7.38;53.18;95014.03;6230744;22;20012;-82
2022/04/06 06:04:49;;;;;;;59.47;20.75;;;;;;;6.89;53.34;94937.03;6231879;22;20036;-81
2022/04/06 06:07:15;;;;;;;49.65;20.00;;;;;;;7.30;52.85;94980.22;6231561;22;20012;-82
2022/04/06 06:09:40;;;;;;;62.35;23.40;;;;;;;7.06;52.43;94936.88;6232700;23;20014;-82
2022/04/06 06:12:06;;;;;;;61.28;23.02;;;;;;;7.23;51.59;94969.13;6229601;23;20020;-82
2022/04/06 06:14:31;;;;;;;68.55;22.23;;;;;;;7.35;51.79;94965.22;6233087;22;20068;-82
2022/04/06 06:16:58;;;;;;;72.90;24.30;;;;;;;8.22;51.65;95081.66;6229533;23;20039;-82
2022/04/06 06:19:24;;;;;;;66.22;23.63;;;;;;;7.97;51.95;95035.63;6228495;23;20012;-83
2022/04/06 06:21:49;;;;;;;58.10;21.30;;;;;;;6.54;52.61;94806.69;6230564;22;20222;-83
2022/04/06 06:24:15;;;;;;;62.42;20.02;;;;;;;7.35;52.40;94924.84;6230401;23;20008;-83
2022/04/06 06:26:43;;;;;;;44.80;17.40;;;;;;;8.36;52.61;95046.56;6231788;22;20330;-83
2022/04/06 06:29:09;;;;;;;42.40;17.88;;;;;;;7.91;52.30;94970.66;6228676;23;20016;-83
2022/04/06 06:31:35;;;;;;;53.58;19.63;;;;;;;8.60;53.00;95068.00;6229131;23;20078;-83
2022/04/06 06:34:01;;;;;;;47.08;19.17;;;;;;;8.61;52.90;95069.59;6229384;23;20090;-83
2022/04/06 06:36:28;;;;;;;44.10;17.75;;;;;;;8.73;52.76;95082.56;6229040;23;20008;-83
2022/04/06 06:38:54;;;;;;;41.90;16.77;;;;;;;8.79;52.80;95069.06;6230956;22;20015;-83
2022/04/06 06:41:20;;;;;;;42.20;15.65;;;;;;;8.87;52.93;95071.19;6228756;23;20077;-83
2022/04/06 06:43:48;;;;;;;29.60;15.73;;;;;;;8.29;52.31;94958.03;6231024;22;20415;-83
2022/04/06 06:46:14;;;;;;;44.90;18.17;;;;;;;8.89;52.82;95036.53;6231026;22;20869;-83
2022/04/06 06:48:40;;;;;;;39.38;16.10;;;;;;;8.54;52.78;94988.97;6229006;23;20519;-83
2022/04/06 06:51:05;;;;;;;30.58;11.68;;;;;;;8.88;52.07;95027.00;6231335;22;20008;-83
2022/04/06 06:53:31;;;;;;;41.25;13.82;;;;;;;9.00;52.00;95016.94;6230194;22;20126;-84
2022/04/06 06:55:57;;;;;;;27.15;12.07;;;;;;;8.77;52.08;95015.66;6227444;23;20016;-83
2022/04/06 06:58:22;;;;;;;34.08;12.18;;;;;;;9.04;52.12;95022.50;6231323;23;20008;-83
2022/04/06 07:00:48;;;;;;;33.83;12.02;;;;;;;9.12;52.21;95011.38;6227865;23;20482;-83
2022/04/06 07:03:13;;;;;;;40.38;13.02;;;;;;;8.79;52.13;94960.66;6228393;23;20031;-82
2022/04/06 07:05:39;;;;;;;27.05;10.82;;;;;;;9.02;52.51;95003.44;6231332;23;20020;-83
2022/04/06 07:08:05;;;;;;;39.33;13.60;;;;;;;9.25;52.03;95047.84;6229241;23;20016;-83
2022/04/06 07:10:31;;;;;;;27.38;13.02;;;;;;;8.68;53.15;94993.47;6229509;23;20008;-83
2022/04/06 07:12:57;;;;;;;53.20;14.48;;;;;;;8.63;52.35;94969.66;6229474;23;20027;-82
2022/04/06 07:15:24;;;;;;;42.30;15.15;;;;;;;8.56;53.21;94977.06;6230943;23;20019;-83
2022/04/06 07:17:54;;;;;;;50.13;16.10;;;;;;;8.45;53.64;94967.56;6230320;22;20039;-83
2022/04/06 07:20:21;;;;;;;43.20;15.07;;;;;;;9.07;53.59;95066.97;6229757;23;20042;-83
2022/04/06 07:22:46;;;;;;;48.55;15.38;;;;;;;8.96;53.30;95068.81;6231054;23;20008;-82
2022/04/06 07:25:12;;;;;;;41.67;13.45;;;;;;;7.90;53.00;94889.06;6232152;23;20023;-83
2022/04/06 07:27:39;;;;;;;38.60;15.30;;;;;;;7.82;53.44;94866.63;6232379;22;20019;-84
2022/04/06 07:30:06;;;;;;;33.03;14.93;;;;;;;8.39;52.60;94919.19;6234991;22;20008;-83
2022/04/06 07:32:32;;;;;;;30.30;13.85;;;;;;;8.50;51.88;94934.00;6228114;23;20090;-83
2022/04/06 07:34:58;;;;;;;36.95;14.63;;;;;;;8.64;52.61;94983.66;6231660;23;20012;-84
2022/04/06 07:37:24;;;;;;;40.70;15.18;;;;;;;9.10;52.27;95024.88;6231547;23;20013;-83
2022/04/06 07:39:49;;;;;;;35.47;14.73;;;;;;;9.25;52.06;95035.41;6234815;22;21382;-83
2022/04/06 07:42:15;;;;;;;46.05;15.07;;;;;;;9.02;51.98;94959.28;6234740;22;20310;-83
2022/04/06 07:44:40;;;;;;;37.60;14.05;;;;;;;9.40;51.50;95018.72;6233723;22;20260;-83
2022/04/06 07:47:06;;;;;;;28.65;13.88;;;;;;;9.16;51.61;94993.91;6232271;23;20023;-84
2022/04/06 07:49:31;;;;;;;28.98;13.05;;;;;;;9.60;51.35;95063.66;6235248;22;20031;-84
2022/04/06 07:51:57;;;;;;;36.67;12.93;;;;;;;9.10;50.86;94971.97;6232959;23;20015;-84
2022/04/06 07:54:22;;;;;;;34.47;13.20;;;;;;;9.22;50.80;94964.53;6234586;23;20044;-83
2022/04/06 07:56:47;;;;;;;35.78;13.90;;;;;;;9.56;49.72;95014.16;6236117;23;20030;-84
2022/04/06 07:59:13;;;;;;;36.28;12.75;;;;;;;9.16;49.75;94939.13;6231819;23;20016;-84
2022/04/06 08:01:38;;;;;;;42.80;13.43;;;;;;;8.88;49.89;94865.69;6234618;22;20012;-83
2022/04/06 08:04:04;;;;;;;32.17;13.85;;;;;;;9.93;49.59;95021.69;6232539;23;20004;-83
2022/04/06 08:06:30;;;;;;;35.95;13.95;;;;;;;9.99;49.01;95002.06;6233152;23;20046;-83
2022/04/06 08:08:55;;;;;;;24.80;12.50;;;;;;;9.81;48.97;94965.59;6233237;23;20022;-84
2022/04/06 08:11:21;;;;;;;24.40;13.20;;;;;;;9.58;48.67;94914.09;6233835;22;20030;-84
2022/04/06 08:13:47;;;;;;;30.35;13.38;;;;;;;9.96;49.10;94966.31;6230441;23;20118;-83
2022/04/06 08:16:13;;;;;;;31.63;12.80;;;;;;;10.38;48.94;95007.38;6233602;22;20015;-83
2022/04/06 08:18:39;;;;;;;32.13;12.75;;;;;;;10.52;48.39;95050.81;6236540;22;20407;-82
2022/04/06 08:21:09;;;;;;;38.75;13.27;;;;;;;10.23;48.82;95016.25;6233473;23;20054;-84
2022/04/06 08:23:35;;;;;;;27.48;12.80;;;;;;;9.86;48.64;94944.38;6233279;23;20012;-83
2022/04/06 08:26:01;;;;;;;31.58;11.68;;;;;;;10.33;49.09;95007.44;6232950;23;20433;-83
2022/04/06 08:28:26;;;;;;;28.70;13.55;;;;;;;10.54;48.66;95003.56;6234110;22;20012;-83
2022/04/06 08:30:52;;;;;;;29.25;12.23;;;;;;;10.63;48.85;95031.09;6234288;23;20023;-83
2022/04/06 08:33:17;;;;;;;35.20;11.80;;;;;;;10.93;48.87;95061.88;6233592;23;20012;-84
2022/04/06 08:35:43;;;;;;;34.95;12.32;;;;;;;10.60;48.24;94975.16;6233214;23;20020;-84
2022/04/06 08:38:15;;;;;;;26.83;12.48;;;;;;;11.09;48.72;95047.41;6233986;23;20440;-84
2022/04/06 08:40:43;;;;;;;36.92;13.18;;;;;;;10.53;48.25;94951.59;6233364;23;20109;-83
2022/04/06 08:43:09;;;;;;;30.92;11.95;;;;;;;11.25;48.57;95037.44;6236630;22;20014;-84
2022/04/06 08:45:37;;;;;;;24.40;12.23;;;;;;;11.22;47.16;95043.31;6236917;22;20020;-84
2022/04/06 08:48:08;;;;;;;25.88;10.50;;;;;;;10.77;47.84;94935.75;6235711;23;20016;-84
2022/04/06 08:50:35;;;;;;;27.30;10.05;;;;;;;11.22;46.93;95020.22;6236252;22;20008;-84
2022/04/06 08:53:06;;;;;;;27.85;10.00;;;;;;;11.52;47.09;95039.53;6234465;23;20081;-84
2022/04/06 08:55:32;;;;;;;20.55;7.90;;;;;;;11.01;44.69;94938.44;6233351;23;20008;-84
2022/04/06 08:57:59;;;;;;;20.77;8.02;;;;;;;10.73;44.35;94890.44;6234348;22;20022;-84
2022/04/06 09:00:26;;;;;;;19.23;7.18;;;;;;;11.64;42.80;95010.75;6234753;23;20008;-84
2022/04/06 09:02:51;;;;;;;18.98;7.40;;;;;;;11.89;43.18;95018.44;6234697;23;20019;-84
2022/04/06 09:05:21;;;;;;;26.77;10.18;;;;;;;11.82;43.72;95019.88;6238314;22;20008;-84
2022/04/06 09:07:51;;;;;;;23.88;8.65;;;;;;;11.59;43.41;94974.38;6234025;23;20023;-84
2022/04/06 09:10:31;;;;;;;18.20;8.00;;;;;;;11.90;42.99;95022.66;6235977;23;20012;-84
2022/04/06 09:13:34;;;;;;;23.55;8.40;;;;;;;12.09;43.26;95013.94;6236069;23;20016;-83
2022/04/06 09:16:01;;;;;;;24.10;8.60;;;;;;;12.16;43.59;95007.19;6238341;23;20235;-83
2022/04/06 09:18:40;;;;;;;15.63;7.25;;;;;;;11.89;42.59;94952.00;6238554;22;20011;-83
2022/04/06 09:21:05;;;;;;;17.10;7.15;;;;;;;11.95;42.67;94939.44;6243835;22;20111;-83
2022/04/06 09:23:32;;;;;;;17.83;8.75;;;;;;;12.27;42.27;94978.59;6237574;22;20000;-83
2022/04/06 09:26:22;;;;;;;24.90;8.77;;;;;;;12.53;43.04;94994.94;6237411;23;20044;-83
2022/04/06 09:28:49;;;;;;;24.50;9.82;;;;;;;11.87;42.97;94889.59;6238466;23;20903;-83
2022/04/06 09:31:18;;;;;;;32.90;9.85;;;;;;;12.12;42.60;94905.19;6237462;23;20068;-83
2022/04/06 09:34:00;;;;;;;24.10;8.80;;;;;;;12.62;39.67;94971.94;6235396;23;20490;-84
2022/04/06 09:36:27;;;;;;;11.18;5.80;;;;;;;11.85;38.04;94846.56;6235076;22;20130;-84
2022/04/06 09:38:53;;;;;;;22.83;7.63;;;;;;;12.10;38.11;94872.78;6235917;23;20008;-83
2022/04/06 09:41:19;;;;;;;22.05;6.97;;;;;;;12.73;37.41;94955.53;6235525;22;20008;-84
2022/04/06 09:43:48;;;;;;;23.40;7.07;;;;;;;11.76;38.29;94787.97;6233187;23;20386;-84
2022/04/06 09:49:08;;;;;;;14.85;6.40;;;;;;;13.11;39.21;94964.16;6239502;23;20075;-84
2022/04/06 09:51:36;;;;;;;16.25;5.88;;;;;;;12.89;38.78;94907.34;6234838;22;20018;-84
2022/04/06 09:54:06;;;;;;;11.95;4.88;;;;;;;12.94;39.71;94885.97;6230831;23;20016;-83
2022/04/06 09:56:33;;;;;;;12.43;4.90;;;;;;;13.39;38.00;94949.03;6237233;22;20136;-84
2022/04/06 09:58:59;;;;;;;12.35;5.65;;;;;;;13.21;36.70;94885.19;6236291;23;20023;-84
2022/04/06 10:01:31;;;;;;;14.60;5.10;;;;;;;14.01;34.32;94897.91;6236860;22;20036;-84
2022/04/06 10:04:06;;;;;;;11.27;4.10;;;;;;;15.14;33.11;94914.34;6240797;22;20014;-84
2022/04/06 10:06:36;;;;;;;12.07;4.55;;;;;;;16.24;31.34;94899.97;6240416;23;20012;-85
2022/04/06 10:09:03;;;;;;;7.65;3.35;;;;;;;17.63;30.04;94950.22;6243535;22;20550;-85
2022/04/06 10:11:30;;;;;;;12.13;6.18;;;;;;;17.96;28.85;94940.44;6241985;22;20008;-84
2022/04/06 10:13:56;;;;;;;10.00;4.80;;;;;;;18.31;28.26;94838.22;6242456;23;20084;-84
2022/04/06 10:16:23;;;;;;;21.33;5.32;;;;;;;19.27;26.50;94864.50;6244296;22;20004;-84
2022/04/06 10:18:51;;;;;;;9.43;4.25;;;;;;;20.36;25.33;94866.31;6242523;22;20008;-84
2022/04/06 10:21:26;;;;;;;15.57;4.07;;;;;;;21.46;24.65;94917.72;6236136;22;20051;-84
2022/04/06 10:24:22;;;;;;;20.73;6.13;;;;;;;22.15;24.25;94921.66;6233894;23;20011;-84
2022/04/06 10:27:21;;;;;;;12.73;4.63;;;;;;;22.19;22.85;94801.00;6232148;23;20079;-84
2022/04/06 10:30:05;;;;;;;12.38;3.95;;;;;;;22.84;23.93;94911.91;6235660;23;20004;-84
2022/04/06 10:32:38;;;;;;;13.52;4.05;;;;;;;23.35;23.37;94900.84;6233173;23;20012;-84
2022/04/06 10:35:24;;;;;;;7.75;3.63;;;;;;;23.24;21.96;94903.38;6236424;22;20551;-85
2022/04/06 10:37:53;;;;;;;10.95;3.92;;;;;;;23.37;21.75;94861.47;6234271;23;20248;-82
2022/04/06 10:40:19;;;;;;;8.10;4.25;;;;;;;23.25;21.39;94891.41;6236072;23;20008;-83
2022/04/06 10:42:46;;;;;;;10.60;3.92;;;;;;;23.27;22.34;94867.47;6236437;22;20530;-83
2022/04/06 10:45:29;;;;;;;17.23;4.22;;;;;;;23.57;21.60;94883.88;6237730;23;20384;-83
2022/04/06 10:48:20;;;;;;;9.63;3.65;;;;;;;23.53;22.06;94877.59;6235333;23;20019;-84
2022/04/06 10:50:48;;;;;;;15.07;4.00;;;;;;;23.35;22.08;94882.69;6234266;23;20043;-83
2022/04/06 10:53:22;;;;;;;14.23;4.30;;;;;;;23.99;21.61;94866.66;6235788;22;20264;-83
2022/04/06 10:56:16;;;;;;;10.00;3.22;;;;;;;24.04;22.61;94850.88;6236068;23;20022;-83
2022/04/06 10:58:53;;;;;;;10.13;3.72;;;;;;;24.15;22.14;94867.28;6236373;23;20016;-83
2022/04/06 11:01:25;;;;;;;8.40;3.30;;;;;;;24.24;22.08;94857.00;6240131;22;20486;-83
2022/04/06 11:03:59;;;;;;;15.52;4.75;;;;;;;23.84;21.24;94814.25;6236665;22;20015;-83
2022/04/06 11:06:44;;;;;;;10.18;3.40;;;;;;;23.83;21.04;94807.25;6234769;22;20065;-83
2022/04/06 11:12:29;;;;;;;6.68;3.10;;;;;;;24.83;21.02;94842.56;6235944;23;20034;-83
2022/04/06 11:14:58;;;;;;;15.55;9.48;;;;;;;24.14;22.37;94765.47;6235394;23;20086;-83
2022/04/06 11:17:34;;;;;;;12.35;5.95;;;;;;;24.67;22.88;94854.78;6234709;23;20076;-83
2022/04/06 11:20:08;;;;;;;13.88;4.97;;;;;;;24.47;22.36;94767.44;6232220;23;20105;-83
2022/04/06 11:22:38;;;;;;;11.10;3.22;;;;;;;24.66;21.77;94778.06;6234377;23;20007;-83
2022/04/06 11:25:09;;;;;;;11.07;4.05;;;;;;;24.60;23.10;94758.66;6235698;23;20019;-84
2022/04/06 11:27:36;;;;;;;4.82;3.00;;;;;;;24.94;20.21;94772.19;6238111;22;20008;-84
2022/04/06 11:30:12;;;;;;;6.50;2.70;;;;;;;24.50;19.92;94775.59;6234154;22;20623;-83
2022/04/06 11:32:45;;;;;;;18.70;4.90;;;;;;;24.09;21.96;94765.81;6233806;23;20078;-83
2022/04/06 11:35:12;;;;;;;9.68;3.22;;;;;;;24.91;21.55;94789.19;6233294;23;20016;-83
2022/04/06 11:37:42;;;;;;;14.55;4.35;;;;;;;24.34;21.83;94707.28;6233332;23;20039;-84
2022/04/06 11:40:09;;;;;;;8.82;3.20;;;;;;;25.16;21.28;94814.63;6233003;23;20094;-83